Airfield :
LOGIN :

Register | Disclaimer

   EN    FR    IT 

 










Legend :    VFR   Marginal VFR   IFR   Intensive IFR   Very Intensive IFR
Visi :
Ceiling :
>= 8 km
>= 3000ft
5 to 8 km
1000 to 3000 ft
1500m to 5 km
500 to 1000 ft
800 to 1500m
200 to 500 ft
< 800m
< 200 ft
Symbols :   Thunderstorms  Fog  Heavy snow  Heavy precipitations  Wind > 20 kt
SIGMETs :     Misc.  Thunderstorms  Icing  Turbulence  Mountain Waves  Volcanic Ashes






- Airport Elevation : 137 ft


LIPS - Istrana AFB Treviso

CURRENT METAR :
  • 280555Z /////KT 8000 BKN050 21/19 Q1010 RMK BKN VIS MIN 8000 WIND THR26 01005KT WIND THR08 03006KT BLU

EXPIRED METARs :
  • 280455Z /////KT 7000 BKN045 20/19 Q1010
  • 280355Z /////KT 9999 FEW050 19/18 Q1010

TAF TAF LIPS
Valid from the 28 at 06:00 until the 28 at 15:00 UTC


280500Z 2806/2815 05012KT 9999 SCT030 SCT040
TEMPO 2808/2815 4000 TSRA FEW015CB BKN025



MET'MAP, your aeronautical weather chart ! - Copyright ORBIFLY December 2007 - Disclaimer

ORBIFLY MET'MAP TEAM :

Programming & Development : Alexandra Zaïnal
Original concept : Baudouin d'Aumeries
Technical & hardware support : Manuel Goepfert
Assistance : Marc-Olivier Méhu

Contact : metmap@orbifly.com




SOURCES & CREDITS :

   NOAA